Time;durP1;ratioP1;P1;durP2;ratioP2;P2;SDS_P1;SDS_P2;PMS_P1;PMS_P2;Temp;Humidity;BMP_temperature;BMP_pressure;BME280_temperature;BME280_humidity;BME280_pressure;Samples;Min_cycle;Max_cycle;Signal;HPM_P1;HPM_P2
2023/10/28 00:00:55;;;;;;;17.85;10.15;;;10.00;99.90;;;;;;4769179;30;20071;-49
2023/10/28 00:03:21;;;;;;;19.02;11.00;;;10.20;99.90;;;;;;4768924;30;20160;-49
2023/10/28 00:05:48;;;;;;;19.33;10.95;;;10.20;99.90;;;;;;4769026;30;20079;-49
2023/10/28 00:08:14;;;;;;;21.48;10.23;;;10.20;99.90;;;;;;4772758;30;20405;-49
2023/10/28 00:10:41;;;;;;;21.70;11.07;;;10.20;99.90;;;;;;4772790;30;20048;-51
2023/10/28 00:13:09;;;;;;;20.42;10.85;;;10.10;99.90;;;;;;4772316;30;20062;-49
2023/10/28 00:15:36;;;;;;;21.55;11.73;;;10.10;99.90;;;;;;4772414;30;20142;-51
2023/10/28 00:18:03;;;;;;;21.90;11.15;;;10.10;99.90;;;;;;4772472;30;20054;-50
2023/10/28 00:20:29;;;;;;;20.35;10.90;;;10.20;99.90;;;;;;4772664;30;20047;-49
2023/10/28 00:22:57;;;;;;;20.10;11.20;;;10.10;99.90;;;;;;4772009;30;20047;-49
2023/10/28 00:25:25;;;;;;;20.08;10.93;;;10.10;99.90;;;;;;4772320;30;20051;-52
2023/10/28 00:27:54;;;;;;;21.83;13.13;;;10.10;99.90;;;;;;4772140;30;20051;-51
2023/10/28 00:30:22;;;;;;;21.08;12.35;;;10.10;99.90;;;;;;4772435;30;20058;-51
2023/10/28 00:32:49;;;;;;;24.35;13.52;;;10.20;99.90;;;;;;4772434;30;20485;-50
2023/10/28 00:35:15;;;;;;;22.58;12.63;;;10.00;99.90;;;;;;4772416;30;20111;-49
2023/10/28 00:37:41;;;;;;;22.13;13.32;;;10.10;99.90;;;;;;4772309;30;20043;-49
2023/10/28 00:40:07;;;;;;;21.83;12.85;;;10.20;99.90;;;;;;4770984;30;20083;-53
2023/10/28 00:42:35;;;;;;;22.27;13.40;;;10.10;99.90;;;;;;4771658;30;20062;-49
2023/10/28 00:45:11;;;;;;;24.83;12.73;;;10.10;99.90;;;;;;4772158;30;20051;-49
2023/10/28 00:47:42;;;;;;;30.60;14.50;;;10.10;99.90;;;;;;4771778;30;20055;-52
2023/10/28 00:50:10;;;;;;;25.17;13.68;;;10.20;99.90;;;;;;4771774;30;20490;-51
2023/10/28 00:52:43;;;;;;;27.63;14.65;;;10.20;99.90;;;;;;4771922;30;20059;-53
2023/10/28 00:55:10;;;;;;;26.95;14.48;;;10.30;99.90;;;;;;4771835;30;20075;-49
2023/10/28 00:57:38;;;;;;;31.83;17.00;;;10.20;99.90;;;;;;4771826;30;20056;-50
2023/10/28 01:00:06;;;;;;;30.45;15.18;;;10.20;99.90;;;;;;4771566;30;20094;-51
2023/10/28 01:02:36;;;;;;;30.38;15.77;;;10.10;99.90;;;;;;4771515;30;20058;-52
2023/10/28 01:05:03;;;;;;;31.35;15.98;;;10.10;99.90;;;;;;4770473;30;20052;-49
2023/10/28 01:07:31;;;;;;;30.00;15.63;;;10.30;99.90;;;;;;4771539;30;20055;-50
2023/10/28 01:09:57;;;;;;;30.13;16.77;;;10.20;99.90;;;;;;4771610;30;20051;-48
2023/10/28 01:12:23;;;;;;;29.10;15.85;;;10.20;99.90;;;;;;4771486;30;20112;-53
2023/10/28 01:14:56;;;;;;;30.17;15.85;;;10.20;99.90;;;;;;4770260;30;20052;-49
2023/10/28 01:17:25;;;;;;;31.70;16.52;;;10.30;99.90;;;;;;4770458;30;20228;-48
2023/10/28 01:19:54;;;;;;;32.53;16.52;;;10.20;99.90;;;;;;4770925;30;20051;-48
2023/10/28 01:22:21;;;;;;;33.47;17.75;;;10.40;99.90;;;;;;4771085;30;20498;-49
2023/10/28 01:24:47;;;;;;;31.67;16.67;;;10.30;99.90;;;;;;4771432;30;20418;-47
2023/10/28 01:27:13;;;;;;;32.35;16.48;;;10.30;99.90;;;;;;4771234;30;20193;-50
2023/10/28 01:29:38;;;;;;;35.80;18.45;;;10.30;99.90;;;;;;4784834;30;20047;-50
2023/10/28 01:32:04;;;;;;;34.30;18.23;;;10.20;99.90;;;;;;4771187;30;20246;-49
2023/10/28 01:34:32;;;;;;;33.28;19.30;;;10.20;99.90;;;;;;4771347;30;20052;-48
2023/10/28 01:36:58;;;;;;;32.75;18.58;;;10.30;99.90;;;;;;4769778;30;20516;-48
2023/10/28 01:39:24;;;;;;;35.45;20.50;;;10.40;99.90;;;;;;4771243;30;20409;-48
2023/10/28 01:41:49;;;;;;;36.72;20.08;;;10.30;99.90;;;;;;4769983;30;20119;-52
2023/10/28 01:44:16;;;;;;;37.35;19.52;;;10.20;99.90;;;;;;4771090;30;20105;-52
2023/10/28 01:46:42;;;;;;;42.15;21.20;;;10.30;99.90;;;;;;4770633;30;20075;-50
2023/10/28 01:49:10;;;;;;;37.88;20.63;;;10.20;99.90;;;;;;4771045;30;20040;-53
2023/10/28 01:51:36;;;;;;;41.72;23.33;;;10.40;99.90;;;;;;4769626;30;20059;-52
2023/10/28 01:54:02;;;;;;;41.03;22.77;;;10.20;99.90;;;;;;4754942;30;20125;-52
2023/10/28 01:56:28;;;;;;;45.35;23.08;;;10.20;99.90;;;;;;4770723;30;20490;-51
2023/10/28 01:58:54;;;;;;;46.75;24.70;;;10.10;99.90;;;;;;4770611;30;20064;-49
2023/10/28 02:01:23;;;;;;;48.08;25.00;;;10.10;99.90;;;;;;4770606;30;20048;-49
2023/10/28 02:03:50;;;;;;;46.13;24.55;;;10.30;99.90;;;;;;4770506;30;20289;-50
2023/10/28 02:06:15;;;;;;;45.47;24.15;;;10.10;99.90;;;;;;4770712;30;20044;-50
2023/10/28 02:08:42;;;;;;;45.75;23.75;;;10.30;99.90;;;;;;4769534;30;20393;-48
2023/10/28 02:11:08;;;;;;;45.28;23.20;;;10.20;99.90;;;;;;4770816;30;20470;-51
2023/10/28 02:13:35;;;;;;;43.38;23.05;;;10.10;99.90;;;;;;4770481;30;20047;-49
2023/10/28 02:16:01;;;;;;;48.58;24.75;;;10.10;99.90;;;;;;4770392;30;20043;-48
2023/10/28 02:18:27;;;;;;;45.78;23.45;;;10.00;99.90;;;;;;4770512;30;20382;-49
2023/10/28 02:20:54;;;;;;;46.75;25.30;;;10.10;99.90;;;;;;4770359;30;20126;-49
2023/10/28 02:23:20;;;;;;;48.72;24.60;;;10.00;99.90;;;;;;4768942;30;20047;-48
2023/10/28 02:25:46;;;;;;;43.88;23.55;;;10.00;99.90;;;;;;4770271;30;20071;-48
2023/10/28 02:28:12;;;;;;;42.72;23.58;;;10.10;99.90;;;;;;4769950;30;20052;-49
2023/10/28 02:30:41;;;;;;;44.58;23.35;;;10.00;99.90;;;;;;4769702;30;20050;-49
2023/10/28 02:33:07;;;;;;;46.55;24.85;;;10.00;99.90;;;;;;4770393;30;20048;-47
2023/10/28 02:35:36;;;;;;;42.83;23.08;;;10.00;99.90;;;;;;4770219;30;20051;-48
2023/10/28 02:38:01;;;;;;;40.58;22.52;;;10.00;99.90;;;;;;4770110;30;20054;-50
2023/10/28 02:40:27;;;;;;;43.10;23.90;;;9.90;99.90;;;;;;4768713;30;20424;-48
2023/10/28 02:42:53;;;;;;;43.08;23.25;;;10.00;99.90;;;;;;4769873;30;20388;-49
2023/10/28 02:45:19;;;;;;;42.88;22.95;;;9.90;99.90;;;;;;4770166;30;20125;-49
2023/10/28 02:47:45;;;;;;;41.15;23.65;;;10.00;99.90;;;;;;4770226;30;20520;-50
2023/10/28 02:50:12;;;;;;;40.03;22.77;;;9.90;99.90;;;;;;4769940;30;20559;-48
2023/10/28 02:52:38;;;;;;;40.85;22.42;;;10.00;99.90;;;;;;4770113;30;20073;-48
2023/10/28 02:55:05;;;;;;;44.13;23.45;;;9.80;99.90;;;;;;4769598;30;20044;-51
2023/10/28 02:57:32;;;;;;;41.78;22.65;;;9.80;99.90;;;;;;4768585;30;20051;-48
2023/10/28 02:59:58;;;;;;;42.63;23.02;;;9.90;99.90;;;;;;4769549;30;20067;-48
2023/10/28 03:02:23;;;;;;;41.50;23.90;;;9.90;99.90;;;;;;4769846;30;20044;-50
2023/10/28 03:04:49;;;;;;;41.90;22.55;;;9.80;99.90;;;;;;4769816;30;20047;-51
2023/10/28 03:07:15;;;;;;;43.60;22.73;;;9.90;99.90;;;;;;4768133;30;20074;-49
2023/10/28 03:09:40;;;;;;;38.38;21.98;;;9.70;99.90;;;;;;4769481;30;20040;-53
2023/10/28 03:12:06;;;;;;;39.17;21.45;;;9.90;99.90;;;;;;4768497;30;20056;-49
2023/10/28 03:14:32;;;;;;;41.08;22.20;;;9.90;99.90;;;;;;4769198;30;20138;-52
2023/10/28 03:16:57;;;;;;;40.85;22.05;;;9.90;99.90;;;;;;4783195;30;20047;-49
2023/10/28 03:19:23;;;;;;;40.72;21.95;;;9.80;99.90;;;;;;4769258;30;20047;-52
2023/10/28 03:21:49;;;;;;;39.40;21.30;;;9.70;99.90;;;;;;4769361;30;20040;-48
2023/10/28 03:24:15;;;;;;;44.58;21.17;;;9.80;99.90;;;;;;4769225;30;20130;-50
2023/10/28 03:26:40;;;;;;;37.70;19.13;;;9.80;99.90;;;;;;4769628;30;20470;-49
2023/10/28 03:29:06;;;;;;;40.33;20.23;;;9.80;99.90;;;;;;4769808;30;20036;-53
2023/10/28 03:31:31;;;;;;;37.35;21.25;;;9.60;99.90;;;;;;4769363;30;20074;-49
2023/10/28 03:33:57;;;;;;;35.38;19.45;;;9.70;99.90;;;;;;4769072;30;20557;-52
2023/10/28 03:36:23;;;;;;;36.97;20.48;;;9.60;99.90;;;;;;4769041;30;20047;-49
2023/10/28 03:38:49;;;;;;;36.50;18.90;;;9.60;99.90;;;;;;4769378;30;20140;-50
2023/10/28 03:41:14;;;;;;;38.10;19.15;;;9.70;99.90;;;;;;4768301;30;20167;-48
2023/10/28 03:43:43;;;;;;;38.33;20.63;;;9.60;99.90;;;;;;4767680;30;20052;-51
2023/10/28 03:46:16;;;;;;;31.38;18.73;;;9.60;99.90;;;;;;4769225;30;20455;-52
2023/10/28 03:48:42;;;;;;;35.63;20.00;;;9.60;99.90;;;;;;4768129;30;20126;-52
2023/10/28 03:51:07;;;;;;;33.20;18.85;;;9.50;99.90;;;;;;4768938;30;20127;-49
2023/10/28 03:53:33;;;;;;;37.95;19.63;;;9.50;99.90;;;;;;4768888;30;20043;-49
2023/10/28 03:55:59;;;;;;;34.40;19.02;;;9.60;99.90;;;;;;4768906;30;20047;-52
2023/10/28 03:58:24;;;;;;;34.58;19.05;;;9.60;99.90;;;;;;4768755;30;20074;-49
2023/10/28 04:00:54;;;;;;;33.05;17.95;;;9.60;99.90;;;;;;4767614;30;20051;-50
2023/10/28 04:03:21;;;;;;;34.53;20.52;;;9.50;99.90;;;;;;4768831;30;20138;-51
2023/10/28 04:05:47;;;;;;;37.17;19.17;;;9.50;99.90;;;;;;4768587;30;20553;-49
2023/10/28 04:08:14;;;;;;;32.88;18.88;;;9.50;99.90;;;;;;4768930;30;20055;-53
2023/10/28 04:10:39;;;;;;;31.58;18.55;;;9.50;99.90;;;;;;4768318;30;20039;-52
2023/10/28 04:13:05;;;;;;;34.00;18.75;;;9.50;99.90;;;;;;4767431;30;20075;-52
2023/10/28 04:15:31;;;;;;;34.83;19.10;;;9.50;99.90;;;;;;4768685;30;20409;-52
2023/10/28 04:17:57;;;;;;;31.75;17.95;;;9.60;99.90;;;;;;4767710;30;20052;-51
2023/10/28 04:20:23;;;;;;;32.78;19.00;;;9.40;99.90;;;;;;4768813;30;20517;-50
2023/10/28 04:22:48;;;;;;;32.33;17.88;;;9.60;99.90;;;;;;4768926;30;20047;-49
2023/10/28 04:25:14;;;;;;;32.85;18.42;;;9.50;99.90;;;;;;4768495;30;20517;-49
2023/10/28 04:27:40;;;;;;;28.83;17.35;;;9.50;99.90;;;;;;4768697;30;20046;-48
2023/10/28 04:30:10;;;;;;;31.30;16.45;;;9.50;99.90;;;;;;4767409;30;20047;-48
2023/10/28 04:32:37;;;;;;;29.13;16.05;;;9.50;99.90;;;;;;4768905;30;20459;-51
2023/10/28 04:35:03;;;;;;;29.48;17.23;;;9.60;99.90;;;;;;4769021;30;20054;-51
2023/10/28 04:37:29;;;;;;;32.50;18.23;;;9.40;99.90;;;;;;4768854;30;20098;-49
2023/10/28 04:39:55;;;;;;;31.92;16.15;;;9.50;99.90;;;;;;4779770;30;20504;-48
2023/10/28 04:42:20;;;;;;;25.58;16.73;;;9.40;99.90;;;;;;4786554;29;20051;-50
2023/10/28 04:44:46;;;;;;;33.75;17.02;;;9.50;99.90;;;;;;4786430;29;20055;-51
2023/10/28 04:47:12;;;;;;;31.10;17.08;;;9.50;99.90;;;;;;4786673;29;20047;-50
2023/10/28 04:49:39;;;;;;;29.90;17.23;;;9.50;99.90;;;;;;4786690;29;20122;-49
2023/10/28 04:52:08;;;;;;;28.40;17.38;;;9.60;99.90;;;;;;4786775;29;20109;-52
2023/10/28 04:54:34;;;;;;;32.47;18.13;;;9.50;99.90;;;;;;4789671;29;20055;-48
2023/10/28 04:57:00;;;;;;;30.70;17.42;;;9.60;99.90;;;;;;4788482;29;20079;-48
2023/10/28 04:59:29;;;;;;;29.15;17.73;;;9.60;99.90;;;;;;4789541;29;20684;-50
2023/10/28 05:01:55;;;;;;;37.75;18.60;;;9.50;99.90;;;;;;4789763;29;20507;-48
2023/10/28 05:04:23;;;;;;;34.47;18.25;;;9.50;99.90;;;;;;4773924;29;20125;-49
2023/10/28 05:06:49;;;;;;;34.42;18.70;;;9.50;99.90;;;;;;4771363;30;20486;-51
2023/10/28 05:09:15;;;;;;;34.25;16.70;;;9.60;99.90;;;;;;4769938;30;20040;-47
2023/10/28 05:11:42;;;;;;;32.25;18.45;;;9.50;99.90;;;;;;4770259;30;20122;-50
2023/10/28 05:14:10;;;;;;;33.63;18.20;;;9.60;99.90;;;;;;4770168;30;20050;-49
2023/10/28 05:16:36;;;;;;;30.42;18.90;;;9.60;99.90;;;;;;4770216;30;20082;-49
2023/10/28 05:19:01;;;;;;;32.75;17.98;;;9.60;99.90;;;;;;4770605;30;20494;-48
2023/10/28 05:21:27;;;;;;;35.45;19.02;;;9.50;99.90;;;;;;4769935;30;20758;-48
2023/10/28 05:23:54;;;;;;;34.53;18.83;;;9.50;99.90;;;;;;4771440;30;20044;-49
2023/10/28 05:26:19;;;;;;;36.90;19.73;;;9.60;99.90;;;;;;4769516;30;20044;-49
2023/10/28 05:28:46;;;;;;;35.15;19.20;;;9.50;99.90;;;;;;4783563;30;20071;-49
2023/10/28 05:31:14;;;;;;;33.58;19.15;;;9.70;99.90;;;;;;4768406;30;20097;-48
2023/10/28 05:33:39;;;;;;;34.75;19.45;;;9.60;99.90;;;;;;4769745;30;20060;-48
2023/10/28 05:36:06;;;;;;;40.08;20.60;;;9.60;99.90;;;;;;4769519;30;20104;-51
2023/10/28 05:38:31;;;;;;;34.15;18.40;;;9.60;99.90;;;;;;4769747;30;20052;-50
2023/10/28 05:40:57;;;;;;;32.63;20.23;;;9.70;99.90;;;;;;4769612;30;20051;-49
2023/10/28 05:43:23;;;;;;;37.22;19.52;;;9.80;99.90;;;;;;4769409;30;20048;-49
2023/10/28 05:45:49;;;;;;;36.28;18.92;;;9.60;99.90;;;;;;4769810;30;20213;-50
2023/10/28 05:48:14;;;;;;;38.13;21.63;;;9.60;99.90;;;;;;4768865;30;20152;-49
2023/10/28 05:50:40;;;;;;;32.60;19.48;;;9.60;99.90;;;;;;4769641;30;20144;-50
2023/10/28 05:53:06;;;;;;;34.85;18.95;;;9.60;99.90;;;;;;4768187;30;20039;-47
2023/10/28 05:55:31;;;;;;;33.83;19.25;;;9.70;99.90;;;;;;4768100;30;20541;-49
2023/10/28 05:57:57;;;;;;;32.53;19.20;;;9.60;99.90;;;;;;4769137;30;20524;-49
2023/10/28 06:00:23;;;;;;;36.92;19.60;;;9.60;99.90;;;;;;4769362;30;20409;-48
2023/10/28 06:02:49;;;;;;;34.75;19.75;;;9.60;99.90;;;;;;4769320;30;20048;-49
2023/10/28 06:05:15;;;;;;;38.35;20.85;;;9.70;99.90;;;;;;4767491;30;20055;-51
2023/10/28 06:07:47;;;;;;;35.60;19.00;;;9.60;99.90;;;;;;4768923;30;20083;-49
2023/10/28 06:10:13;;;;;;;39.03;19.33;;;9.70;99.90;;;;;;4768232;30;20040;-49
2023/10/28 06:12:39;;;;;;;33.58;18.90;;;9.70;99.90;;;;;;4767803;30;20062;-51
2023/10/28 06:15:05;;;;;;;32.50;19.08;;;9.80;99.90;;;;;;4767846;30;20047;-50
2023/10/28 06:17:30;;;;;;;34.75;18.35;;;9.70;99.90;;;;;;4769360;30;20047;-52
2023/10/28 06:19:56;;;;;;;36.83;18.63;;;9.70;99.90;;;;;;4769171;30;20494;-52
2023/10/28 06:22:22;;;;;;;31.15;17.33;;;9.80;99.90;;;;;;4783098;30;20472;-52
2023/10/28 06:24:49;;;;;;;38.92;18.67;;;9.80;99.90;;;;;;4786678;29;20051;-51
2023/10/28 06:27:15;;;;;;;33.38;18.73;;;9.80;99.90;;;;;;4785566;30;20051;-48
2023/10/28 06:29:40;;;;;;;34.55;18.90;;;9.70;99.90;;;;;;4786933;29;20113;-49
2023/10/28 06:32:07;;;;;;;39.33;19.75;;;9.70;99.90;;;;;;4760432;29;20051;-52
2023/10/28 06:34:32;;;;;;;34.58;18.48;;;9.70;99.90;;;;;;4768146;30;20050;-48
2023/10/28 06:36:58;;;;;;;32.83;18.20;;;9.70;99.90;;;;;;4768941;30;20469;-52
2023/10/28 06:39:24;;;;;;;36.38;18.17;;;9.80;99.90;;;;;;4768520;30;20048;-50
2023/10/28 06:41:50;;;;;;;32.97;17.98;;;9.90;99.90;;;;;;4768770;30;20059;-49
2023/10/28 06:44:18;;;;;;;26.83;16.60;;;9.90;99.90;;;;;;4767150;30;20074;-49
2023/10/28 06:46:44;;;;;;;29.45;16.58;;;9.80;99.90;;;;;;4767143;30;20046;-49
2023/10/28 06:49:11;;;;;;;31.05;17.20;;;9.90;99.90;;;;;;4768604;30;20435;-49
2023/10/28 06:51:37;;;;;;;29.33;17.58;;;9.80;99.90;;;;;;4767307;30;20131;-48
2023/10/28 06:54:03;;;;;;;35.50;17.67;;;9.90;99.90;;;;;;4767225;30;20532;-48
2023/10/28 06:56:30;;;;;;;27.27;15.98;;;9.90;99.90;;;;;;4769048;30;20082;-48
2023/10/28 06:58:56;;;;;;;31.20;15.98;;;9.80;99.90;;;;;;4769601;30;20132;-47
2023/10/28 07:01:22;;;;;;;31.83;16.90;;;10.10;99.90;;;;;;4769165;30;20047;-50
2023/10/28 07:03:49;;;;;;;26.13;16.13;;;10.10;99.90;;;;;;4768948;30;20459;-49
2023/10/28 07:06:15;;;;;;;31.10;15.98;;;10.10;99.90;;;;;;4769726;30;20079;-49
2023/10/28 07:08:50;;;;;;;27.02;14.98;;;10.10;99.90;;;;;;4769248;30;20142;-51
2023/10/28 07:11:15;;;;;;;22.75;13.93;;;9.90;99.90;;;;;;4769833;30;20495;-50
2023/10/28 07:13:41;;;;;;;28.75;14.13;;;10.00;99.90;;;;;;4768052;30;20126;-53
2023/10/28 07:16:07;;;;;;;24.23;14.02;;;9.90;99.90;;;;;;4769132;30;20047;-52
2023/10/28 07:18:33;;;;;;;23.02;13.35;;;10.00;99.90;;;;;;4768939;30;20401;-53
2023/10/28 07:21:00;;;;;;;23.15;12.63;;;10.00;99.90;;;;;;4769222;30;20048;-49
2023/10/28 07:23:26;;;;;;;27.60;13.43;;;10.00;99.90;;;;;;4769166;30;20437;-48
2023/10/28 07:25:53;;;;;;;24.38;12.70;;;10.10;99.90;;;;;;4769338;30;20170;-50
2023/10/28 07:28:20;;;;;;;25.55;12.23;;;10.10;99.90;;;;;;4768952;30;20467;-52
2023/10/28 07:30:48;;;;;;;18.67;11.75;;;10.10;99.90;;;;;;4768218;30;20394;-49
2023/10/28 07:33:14;;;;;;;21.75;11.98;;;10.00;99.90;;;;;;4767952;30;20055;-51
2023/10/28 07:35:47;;;;;;;21.13;11.45;;;10.20;99.90;;;;;;4769166;30;20072;-53
2023/10/28 07:38:17;;;;;;;19.05;11.18;;;10.10;99.90;;;;;;4768592;30;20043;-52
2023/10/28 07:40:44;;;;;;;18.17;10.60;;;10.10;99.90;;;;;;4768689;30;20517;-49
2023/10/28 07:43:11;;;;;;;17.42;10.82;;;10.10;99.90;;;;;;4768722;30;20516;-52
2023/10/28 07:45:38;;;;;;;16.65;10.57;;;10.20;99.90;;;;;;4768946;30;20040;-49
2023/10/28 07:48:06;;;;;;;18.52;10.57;;;10.20;99.90;;;;;;4767486;30;20501;-48
2023/10/28 07:50:35;;;;;;;22.20;10.25;;;10.40;99.90;;;;;;4769135;30;20043;-51
2023/10/28 07:53:01;;;;;;;16.33;9.48;;;10.30;99.90;;;;;;4769015;30;20048;-48
2023/10/28 07:55:27;;;;;;;16.80;9.82;;;10.40;99.90;;;;;;4766757;30;20517;-50
2023/10/28 07:57:54;;;;;;;18.90;9.77;;;10.40;99.90;;;;;;4767218;30;20105;-49
2023/10/28 08:00:20;;;;;;;13.77;9.18;;;10.40;99.90;;;;;;4769005;30;20122;-49
2023/10/28 08:02:46;;;;;;;17.75;9.77;;;10.40;99.90;;;;;;4768762;30;20048;-52
2023/10/28 08:05:12;;;;;;;14.20;8.88;;;10.50;99.90;;;;;;4768808;30;20048;-49
2023/10/28 08:07:38;;;;;;;16.15;9.82;;;10.50;99.90;;;;;;4768604;30;20039;-49
2023/10/28 08:10:05;;;;;;;15.27;8.50;;;10.50;99.90;;;;;;4766890;30;20059;-51
2023/10/28 08:12:30;;;;;;;17.75;8.70;;;10.60;99.90;;;;;;4768504;30;20181;-49
2023/10/28 08:14:59;;;;;;;14.30;8.02;;;10.80;99.90;;;;;;4768635;30;20130;-49
2023/10/28 08:17:24;;;;;;;11.32;8.13;;;10.80;99.90;;;;;;4768704;30;20055;-49
2023/10/28 08:19:50;;;;;;;15.73;7.55;;;10.80;99.90;;;;;;4768961;30;20402;-48
2023/10/28 08:22:16;;;;;;;16.02;8.52;;;10.90;99.90;;;;;;4768689;30;20052;-49
2023/10/28 08:24:41;;;;;;;14.13;9.02;;;10.80;99.90;;;;;;4768268;30;20043;-49
2023/10/28 08:27:10;;;;;;;16.15;8.48;;;11.00;99.90;;;;;;4769170;30;20044;-49
2023/10/28 08:29:37;;;;;;;12.07;7.95;;;10.90;99.90;;;;;;4772376;30;20040;-48
2023/10/28 08:32:03;;;;;;;15.73;7.93;;;10.90;99.90;;;;;;4771990;30;20048;-49
2023/10/28 08:34:29;;;;;;;14.35;7.93;;;11.00;99.90;;;;;;4771707;30;20577;-51
2023/10/28 08:36:55;;;;;;;15.02;7.63;;;11.10;99.90;;;;;;4771789;30;20142;-51
2023/10/28 08:39:20;;;;;;;11.50;6.75;;;11.00;99.90;;;;;;4771923;30;20130;-49
2023/10/28 08:41:47;;;;;;;12.27;6.50;;;11.00;99.90;;;;;;4770617;30;20043;-50
2023/10/28 08:44:14;;;;;;;12.98;6.65;;;10.90;99.90;;;;;;4770849;30;20529;-51
2023/10/28 08:46:42;;;;;;;12.30;6.47;;;11.00;99.90;;;;;;4772546;30;20046;-52
2023/10/28 08:49:13;;;;;;;12.40;6.80;;;10.90;99.90;;;;;;4771871;30;20040;-51
2023/10/28 08:51:42;;;;;;;11.30;6.72;;;10.90;99.90;;;;;;4771767;30;20043;-49
2023/10/28 08:54:10;;;;;;;13.70;6.95;;;11.00;99.90;;;;;;4770648;30;20059;-52
2023/10/28 08:56:42;;;;;;;14.68;7.32;;;11.00;99.90;;;;;;4772007;30;20082;-53
2023/10/28 08:59:09;;;;;;;12.52;6.93;;;11.00;99.90;;;;;;4771726;30;20417;-49
2023/10/28 09:01:36;;;;;;;13.50;7.00;;;11.00;99.90;;;;;;4771553;30;20702;-52
2023/10/28 09:04:04;;;;;;;11.18;6.72;;;11.00;99.90;;;;;;4771486;30;20051;-49
2023/10/28 09:06:31;;;;;;;14.40;7.38;;;11.00;99.90;;;;;;4771325;30;20502;-51
2023/10/28 09:08:59;;;;;;;13.00;6.95;;;11.00;99.90;;;;;;4770709;30;20047;-52
2023/10/28 09:11:25;;;;;;;12.50;6.63;;;11.00;99.90;;;;;;4771456;30;20059;-49
2023/10/28 09:13:51;;;;;;;13.15;7.03;;;11.00;99.90;;;;;;4771463;30;20052;-50
2023/10/28 09:16:17;;;;;;;14.27;6.93;;;10.90;99.90;;;;;;4771123;30;20055;-50
2023/10/28 09:18:44;;;;;;;12.45;6.00;;;10.90;99.90;;;;;;4770517;30;20552;-51
2023/10/28 09:21:11;;;;;;;12.02;6.63;;;10.90;99.90;;;;;;4771546;30;20132;-50
2023/10/28 09:23:38;;;;;;;13.55;6.45;;;11.00;99.90;;;;;;4771078;30;20577;-50
2023/10/28 09:26:08;;;;;;;11.75;6.43;;;11.00;99.90;;;;;;4771279;30;20040;-49
2023/10/28 09:28:33;;;;;;;13.52;6.38;;;11.00;99.90;;;;;;4770967;30;20040;-50
2023/10/28 09:30:59;;;;;;;12.00;7.15;;;11.00;99.90;;;;;;4770697;30;20044;-49
2023/10/28 09:33:30;;;;;;;12.80;6.30;;;11.10;99.90;;;;;;4770374;30;20067;-50
2023/10/28 09:35:57;;;;;;;13.70;6.47;;;11.10;99.90;;;;;;4767620;30;20064;-52
2023/10/28 09:38:23;;;;;;;10.45;6.32;;;11.10;99.90;;;;;;4768848;30;20132;-52
2023/10/28 09:40:50;;;;;;;12.30;6.28;;;11.20;99.90;;;;;;4770411;30;20181;-51
2023/10/28 09:43:15;;;;;;;9.82;6.25;;;11.10;99.90;;;;;;4770036;30;20040;-51
2023/10/28 09:45:49;;;;;;;12.32;6.20;;;11.10;99.90;;;;;;4770182;30;20055;-53
2023/10/28 09:48:19;;;;;;;12.07;6.40;;;11.10;99.90;;;;;;4768776;30;20059;-50
2023/10/28 09:50:49;;;;;;;11.75;6.30;;;11.10;99.90;;;;;;4770541;30;20054;-51
2023/10/28 09:53:42;;;;;;;12.95;6.43;;;11.20;99.90;;;;;;4770449;30;20054;-49
2023/10/28 09:56:08;;;;;;;12.15;6.20;;;11.20;99.90;;;;;;4770150;30;20505;-52
2023/10/28 09:58:54;;;;;;;13.32;6.47;;;11.20;99.90;;;;;;4769832;30;20059;-48
2023/10/28 10:01:48;;;;;;;11.82;5.47;;;11.20;99.90;;;;;;4768839;30;20051;-50
2023/10/28 10:04:26;;;;;;;11.82;6.18;;;11.20;99.90;;;;;;4768281;30;20058;-53
2023/10/28 10:06:52;;;;;;;12.13;6.13;;;11.20;99.90;;;;;;4769178;30;20130;-49
2023/10/28 10:09:21;;;;;;;10.95;5.55;;;11.20;99.90;;;;;;4754283;30;20130;-52
2023/10/28 10:11:49;;;;;;;11.10;6.20;;;11.20;99.90;;;;;;4769925;30;20039;-48
2023/10/28 10:14:17;;;;;;;13.07;5.63;;;11.30;99.90;;;;;;4770259;30;20543;-49
2023/10/28 10:17:05;;;;;;;9.73;5.55;;;11.30;99.90;;;;;;4770145;30;20043;-49
2023/10/28 10:19:34;;;;;;;9.35;5.55;;;11.20;99.90;;;;;;4769904;30;20118;-51
2023/10/28 10:22:05;;;;;;;13.15;5.18;;;11.20;99.90;;;;;;4769535;30;20040;-53
2023/10/28 10:24:31;;;;;;;11.25;6.15;;;11.20;99.90;;;;;;4769566;30;20163;-53
2023/10/28 10:26:59;;;;;;;12.02;6.03;;;11.20;99.90;;;;;;4768960;30;20079;-52
2023/10/28 10:29:29;;;;;;;12.73;6.20;;;11.20;99.90;;;;;;4770380;30;20115;-49
2023/10/28 10:31:58;;;;;;;10.40;6.05;;;11.20;99.90;;;;;;4770084;30;20048;-52
2023/10/28 10:34:40;;;;;;;10.73;6.28;;;11.20;99.90;;;;;;4783778;30;20048;-51
2023/10/28 10:37:06;;;;;;;;;;;11.20;99.90;;;;;;4770488;30;20052;-50
2023/10/28 10:39:46;;;;;;;13.07;5.72;;;11.20;99.90;;;;;;4770080;30;19944;-50
2023/10/28 10:42:12;;;;;;;13.70;6.57;;;11.20;99.90;;;;;;4770063;30;20055;-49
2023/10/28 10:44:39;;;;;;;12.05;5.93;;;11.20;99.90;;;;;;4768413;30;20513;-51
2023/10/28 10:47:08;;;;;;;10.43;5.75;;;11.30;99.90;;;;;;4769837;30;20048;-48
2023/10/28 10:49:36;;;;;;;14.73;6.00;;;11.20;99.90;;;;;;4768112;30;20043;-48
2023/10/28 10:52:03;;;;;;;10.35;5.07;;;11.20;99.90;;;;;;4769139;30;20117;-50
2023/10/28 10:54:36;;;;;;;9.63;5.82;;;11.30;99.90;;;;;;4769681;30;20079;-49
2023/10/28 10:57:03;;;;;;;12.90;6.45;;;11.30;99.90;;;;;;4783434;29;20044;-52
2023/10/28 10:59:32;;;;;;;9.80;5.70;;;11.30;99.90;;;;;;4769628;30;20055;-49
2023/10/28 11:02:00;;;;;;;10.77;5.35;;;11.40;99.90;;;;;;4769849;30;20488;-49
2023/10/28 11:04:30;;;;;;;12.30;5.20;;;11.40;99.90;;;;;;4769452;30;20558;-49
2023/10/28 11:06:56;;;;;;;11.02;5.53;;;11.40;99.90;;;;;;4769710;30;20456;-50
2023/10/28 11:09:22;;;;;;;11.88;5.50;;;11.40;99.90;;;;;;4769437;30;20097;-49
2023/10/28 11:11:49;;;;;;;10.73;5.15;;;11.40;99.90;;;;;;4769660;30;20052;-47
2023/10/28 11:14:15;;;;;;;11.43;5.28;;;11.40;99.90;;;;;;4768170;30;20048;-51
2023/10/28 11:16:41;;;;;;;11.13;5.30;;;11.40;99.90;;;;;;4769197;30;20080;-52
2023/10/28 11:19:09;;;;;;;10.15;5.60;;;11.50;99.90;;;;;;4769172;30;20040;-50
2023/10/28 11:21:36;;;;;;;12.07;4.88;;;11.50;99.90;;;;;;4768056;30;20047;-52
2023/10/28 11:24:04;;;;;;;10.48;5.25;;;11.60;99.90;;;;;;4769243;30;20510;-50
2023/10/28 11:26:29;;;;;;;11.70;5.65;;;11.60;99.90;;;;;;4768097;30;20044;-48
2023/10/28 11:29:02;;;;;;;11.23;5.18;;;11.70;99.90;;;;;;4768862;30;20062;-52
2023/10/28 11:31:29;;;;;;;9.77;5.05;;;11.80;99.90;;;;;;4767827;30;20046;-49
2023/10/28 11:33:59;;;;;;;11.15;4.53;;;11.80;99.90;;;;;;4769006;30;20634;-50
2023/10/28 11:36:25;;;;;;;8.50;5.18;;;12.00;99.90;;;;;;4769082;30;20067;-48
2023/10/28 11:38:52;;;;;;;11.43;5.55;;;12.10;99.90;;;;;;4768807;30;20055;-48
2023/10/28 11:41:22;;;;;;;12.00;5.63;;;12.00;99.90;;;;;;4769307;30;20492;-48
2023/10/28 11:43:49;;;;;;;13.52;5.25;;;12.10;99.90;;;;;;4769150;30;20043;-49
2023/10/28 11:46:16;;;;;;;15.07;5.38;;;12.10;99.90;;;;;;4768792;30;20048;-49
2023/10/28 11:48:45;;;;;;;11.63;5.13;;;12.10;99.90;;;;;;4767222;30;20497;-48
2023/10/28 11:51:13;;;;;;;9.93;4.82;;;12.00;99.90;;;;;;4767973;30;20039;-51
2023/10/28 11:53:44;;;;;;;12.05;4.75;;;12.00;99.90;;;;;;4769092;30;20071;-53
2023/10/28 11:56:11;;;;;;;10.88;4.78;;;12.00;99.90;;;;;;4768188;30;20051;-51
2023/10/28 11:58:36;;;;;;;11.43;4.63;;;11.90;99.90;;;;;;4768467;30;20112;-50
2023/10/28 12:01:02;;;;;;;10.32;5.30;;;11.80;99.90;;;;;;4768770;30;20460;-49
2023/10/28 12:03:28;;;;;;;10.05;4.35;;;11.80;99.90;;;;;;4767814;30;20048;-50
2023/10/28 12:05:53;;;;;;;10.65;4.47;;;11.80;99.90;;;;;;4768934;30;20527;-49
2023/10/28 12:08:19;;;;;;;11.75;4.53;;;11.80;99.90;;;;;;4768313;30;20060;-49
2023/10/28 12:10:46;;;;;;;10.70;4.53;;;11.80;99.90;;;;;;4767516;30;20442;-48
2023/10/28 12:13:12;;;;;;;10.32;4.50;;;11.80;99.90;;;;;;4768694;30;20318;-50
2023/10/28 12:15:39;;;;;;;10.02;4.47;;;11.70;99.90;;;;;;4768945;30;20083;-51
2023/10/28 12:18:06;;;;;;;11.32;3.90;;;11.80;99.90;;;;;;4768293;30;20048;-51
2023/10/28 12:20:32;;;;;;;10.27;4.88;;;11.90;99.90;;;;;;4768690;30;20064;-49
2023/10/28 12:22:58;;;;;;;9.55;4.28;;;11.90;99.90;;;;;;4768083;30;20055;-49
2023/10/28 12:25:24;;;;;;;10.68;4.35;;;12.00;99.90;;;;;;4766883;30;20047;-49
2023/10/28 12:27:51;;;;;;;9.85;4.00;;;12.00;99.90;;;;;;4768405;30;20130;-49
2023/10/28 12:30:18;;;;;;;12.30;4.30;;;12.10;99.90;;;;;;4767014;30;20058;-50
2023/10/28 12:32:43;;;;;;;10.80;3.90;;;12.20;99.90;;;;;;4768418;30;20059;-49
2023/10/28 12:35:09;;;;;;;13.40;4.97;;;12.20;99.90;;;;;;4768808;30;20052;-50